Time;durP1;ratioP1;P1;durP2;ratioP2;P2;SDS_P1;SDS_P2;PMS_P1;PMS_P2;Temp;Humidity;BMP_temperature;BMP_pressure;BME280_temperature;BME280_humidity;BME280_pressure;Samples;Min_cycle;Max_cycle;Signal;HPM_P1;HPM_P2
2022/06/08 00:02:01;;;;;;;5.20;5.00;;;;;;;14.81;100.00;100662.47;6025417;23;20024;-68
2022/06/08 00:04:27;;;;;;;5.25;5.05;;;;;;;14.46;100.00;100605.88;6010849;23;20187;-67
2022/06/08 00:06:55;;;;;;;19.17;18.23;;;;;;;13.66;100.00;100486.53;5897140;23;20267;-68
2022/06/08 00:09:21;;;;;;;5.03;4.82;;;;;;;14.23;100.00;100574.94;5997016;23;20238;-68
2022/06/08 00:11:48;;;;;;;6.05;5.75;;;;;;;14.83;100.00;100668.50;6001812;23;20394;-67
2022/06/08 00:14:15;;;;;;;5.40;5.10;;;;;;;14.57;100.00;100631.53;6022628;23;20011;-68
2022/06/08 00:16:41;;;;;;;5.65;5.40;;;;;;;14.86;100.00;100663.00;5994203;23;20027;-67
2022/06/08 00:19:08;;;;;;;5.20;4.90;;;;;;;14.79;100.00;100646.72;6032000;23;20015;-67
2022/06/08 00:21:35;;;;;;;5.03;4.82;;;;;;;14.89;100.00;100661.00;6003248;23;20075;-68
2022/06/08 00:24:02;;;;;;;5.00;4.80;;;;;;;14.88;100.00;100658.47;6020438;23;20015;-67
2022/06/08 00:26:29;;;;;;;5.47;5.18;;;;;;;14.91;100.00;100663.50;6008416;23;20026;-67
2022/06/08 00:28:55;;;;;;;6.65;6.35;;;;;;;14.90;100.00;100660.03;6020500;23;20479;-68
2022/06/08 00:31:22;;;;;;;4.90;4.70;;;;;;;14.73;100.00;100637.47;6034420;23;20488;-67
2022/06/08 00:33:49;;;;;;;6.28;5.97;;;;;;;14.91;100.00;100652.94;6000142;23;20433;-68
2022/06/08 00:36:15;;;;;;;5.20;5.00;;;;;;;14.91;100.00;100651.16;6027773;23;20082;-68
2022/06/08 00:38:42;;;;;;;5.38;5.13;;;;;;;14.95;100.00;100647.34;5984707;23;20255;-68
2022/06/08 00:41:43;;;;;;;5.20;5.00;;;;;;;14.75;100.00;100609.13;6020665;23;20078;-68
2022/06/08 00:44:18;;;;;;;5.55;5.30;;;;;;;14.94;100.00;100635.09;5993335;23;20224;-68
2022/06/08 00:46:46;;;;;;;6.13;5.82;;;;;;;14.95;100.00;100638.56;6010140;23;20078;-68
2022/06/08 00:49:17;;;;;;;4.85;4.65;;;;;;;14.98;100.00;100635.72;6020562;23;20471;-68
2022/06/08 00:51:43;;;;;;;6.40;6.10;;;;;;;14.88;100.00;100614.38;5986354;23;20553;-68
2022/06/08 00:54:21;;;;;;;5.20;5.00;;;;;;;14.83;100.00;100607.72;6018263;23;20091;-68
2022/06/08 00:56:52;;;;;;;6.78;6.47;;;;;;;14.99;100.00;100626.81;5988591;23;20030;-68
2022/06/08 00:59:18;;;;;;;5.20;5.00;;;;;;;14.79;100.00;100588.59;6021490;23;20061;-68
2022/06/08 01:01:45;;;;;;;5.88;5.60;;;;;;;14.86;100.00;100596.97;5994033;23;20031;-68
2022/06/08 01:04:16;;;;;;;5.30;5.10;;;;;;;14.95;100.00;100614.78;6027662;23;20038;-69
2022/06/08 01:06:45;;;;;;;5.40;5.15;;;;;;;14.89;100.00;100591.44;5984980;23;20029;-68
2022/06/08 01:09:21;;;;;;;5.10;4.90;;;;;;;14.79;100.00;100579.84;6020734;23;20019;-68
2022/06/08 01:11:47;;;;;;;6.43;6.13;;;;;;;14.91;100.00;100600.09;5992149;23;20492;-69
2022/06/08 01:14:17;;;;;;;5.22;5.03;;;;;;;14.96;100.00;100608.56;6022029;23;20094;-68
2022/06/08 01:17:07;;;;;;;6.63;6.32;;;;;;;14.93;100.00;100600.81;5990764;23;20027;-69
2022/06/08 01:19:37;;;;;;;5.07;4.88;;;;;;;14.90;100.00;100604.53;6011338;23;20097;-69
2022/06/08 01:22:06;;;;;;;5.68;5.20;;;;;;;14.88;100.00;100601.16;5990309;23;20108;-68
2022/06/08 01:24:34;;;;;;;5.00;4.80;;;;;;;14.82;100.00;100587.56;6025811;23;20019;-68
2022/06/08 01:27:18;;;;;;;5.20;5.00;;;;;;;14.88;100.00;100601.16;5982261;23;20417;-68
2022/06/08 01:30:06;;;;;;;6.35;5.97;;;;;;;14.87;100.00;100596.81;6014230;23;20452;-68
2022/06/08 01:32:38;;;;;;;5.60;5.30;;;;;;;14.70;100.00;100574.28;5978232;23;20460;-69
2022/06/08 01:35:31;;;;;;;4.90;4.70;;;;;;;14.86;100.00;100594.31;6013012;23;20023;-68
2022/06/08 01:38:15;;;;;;;6.45;6.15;;;;;;;14.66;100.00;100558.75;6054312;23;20279;-68
2022/06/08 01:41:16;;;;;;;5.30;5.10;;;;;;;14.79;100.00;100588.59;6023126;23;20333;-68
2022/06/08 01:43:46;;;;;;;5.75;5.50;;;;;;;14.74;100.00;100575.75;6020508;23;20264;-68
2022/06/08 01:46:28;;;;;;;5.10;4.85;;;;;;;14.40;100.00;100527.09;6022071;23;20030;-69
2022/06/08 01:49:07;;;;;;;6.75;6.45;;;;;;;14.62;100.00;100573.13;6049596;23;20018;-69
2022/06/08 01:52:00;;;;;;;5.20;5.00;;;;;;;14.55;100.00;100578.81;6025645;23;20011;-68
2022/06/08 01:54:44;;;;;;;5.13;4.93;;;;;;;14.46;100.00;100565.44;6020588;23;20488;-68
2022/06/08 01:57:13;;;;;;;5.15;4.85;;;;;;;14.43;100.00;100570.91;6021564;23;20312;-68
2022/06/08 02:00:10;;;;;;;4.93;4.72;;;;;;;14.36;100.00;100560.78;6026755;23;20612;-68
2022/06/08 02:03:07;;;;;;;5.00;4.80;;;;;;;14.34;100.00;100567.97;6043624;23;20343;-68
2022/06/08 02:06:13;;;;;;;6.03;5.63;;;;;;;14.30;100.00;100563.84;6048256;23;20030;-68
2022/06/08 02:08:49;;;;;;;5.13;4.93;;;;;;;13.72;100.00;100471.13;6023567;23;20141;-68
2022/06/08 02:11:53;;;;;;;5.10;4.90;;;;;;;14.17;100.00;100557.72;6017277;23;20015;-68
2022/06/08 02:14:31;;;;;;;5.22;4.97;;;;;;;14.07;100.00;100552.28;5968031;23;20444;-69
2022/06/08 02:17:07;;;;;;;7.07;6.72;;;;;;;14.01;100.00;100563.25;6018700;23;20032;-69
2022/06/08 02:19:40;;;;;;;5.43;5.13;;;;;;;13.73;100.00;100514.16;6021377;23;20030;-67
2022/06/08 02:22:29;;;;;;;5.13;4.85;;;;;;;13.86;100.00;100543.19;6024785;23;20014;-67
2022/06/08 02:24:59;;;;;;;6.07;5.78;;;;;;;13.81;100.00;100561.97;6046437;23;20618;-68
2022/06/08 02:27:32;;;;;;;5.13;4.93;;;;;;;13.76;100.00;100550.88;6012782;23;20094;-70
2022/06/08 02:30:09;;;;;;;5.45;5.25;;;;;;;13.70;100.00;100546.03;6021461;23;20465;-67
2022/06/08 02:35:33;;;;;;;4.80;4.60;;;;;;;13.20;100.00;100465.88;6036812;23;20036;-67
2022/06/08 02:38:08;;;;;;;5.40;5.20;;;;;;;13.52;100.00;100509.41;6056435;23;20140;-68
2022/06/08 02:40:37;;;;;;;5.00;4.80;;;;;;;13.65;100.00;100522.63;6018312;23;20034;-68
2022/06/08 02:43:20;;;;;;;4.80;4.60;;;;;;;13.47;100.00;100502.75;6046671;23;20003;-69
2022/06/08 02:45:57;;;;;;;6.28;5.97;;;;;;;13.68;100.00;100530.28;6073773;23;20024;-68
2022/06/08 02:48:24;;;;;;;4.80;4.60;;;;;;;13.59;100.00;100527.44;6078522;23;20151;-68
2022/06/08 02:50:54;;;;;;;6.50;6.20;;;;;;;13.59;100.00;100528.31;6045104;23;20049;-67
2022/06/08 02:53:20;;;;;;;4.97;4.78;;;;;;;13.49;100.00;100522.81;6073761;23;20026;-68
2022/06/08 02:55:55;;;;;;;6.75;6.45;;;;;;;13.42;100.00;100521.50;6047344;23;20054;-68
2022/06/08 02:58:32;;;;;;;4.80;4.60;;;;;;;13.41;100.00;100511.94;6065970;23;20028;-68
2022/06/08 03:01:04;;;;;;;5.65;5.45;;;;;;;13.39;100.00;100524.38;6049264;23;20014;-67
2022/06/08 03:03:38;;;;;;;5.00;4.80;;;;;;;13.21;100.00;100512.34;6048751;23;20054;-68
2022/06/08 03:06:10;;;;;;;4.90;4.70;;;;;;;13.15;100.00;100506.56;6054889;23;20519;-69
2022/06/08 03:08:43;;;;;;;4.90;4.70;;;;;;;13.21;100.00;100510.59;6046022;23;20015;-67
2022/06/08 03:11:10;;;;;;;4.78;4.57;;;;;;;13.31;100.00;100529.28;6047438;23;20621;-67
2022/06/08 03:14:00;;;;;;;4.90;4.70;;;;;;;13.30;100.00;100517.91;6075709;23;20026;-67
2022/06/08 03:16:33;;;;;;;4.78;4.57;;;;;;;13.06;100.00;100483.44;6056276;23;20396;-68
2022/06/08 03:19:00;;;;;;;5.22;5.03;;;;;;;13.32;100.00;100515.16;6051486;23;20276;-68
2022/06/08 03:21:27;;;;;;;4.60;4.40;;;;;;;13.38;100.00;100514.75;6059552;23;20014;-68
2022/06/08 03:23:55;;;;;;;6.78;6.45;;;;;;;12.24;100.00;100331.75;6048786;23;20033;-67
2022/06/08 03:26:23;;;;;;;4.70;4.50;;;;;;;12.29;100.00;100338.41;6074236;23;20081;-67
2022/06/08 03:28:50;;;;;;;6.03;5.72;;;;;;;13.28;100.00;100487.28;6041936;23;20051;-67
2022/06/08 03:31:17;;;;;;;4.70;4.50;;;;;;;13.45;100.00;100494.09;6075011;23;20225;-66
2022/06/08 03:33:43;;;;;;;5.80;5.53;;;;;;;13.67;100.00;100509.28;6045722;23;20486;-68
2022/06/08 03:36:12;;;;;;;4.40;4.20;;;;;;;13.90;100.00;100520.91;6070939;23;20042;-67
2022/06/08 03:38:38;;;;;;;4.72;4.53;;;;;;;13.76;100.00;100483.13;6049915;23;20037;-67
2022/06/08 03:41:04;;;;;;;5.00;4.80;;;;;;;13.75;100.00;100470.91;6079040;23;20112;-68
2022/06/08 03:43:31;;;;;;;4.80;4.60;;;;;;;14.18;100.00;100519.00;6052274;23;20333;-67
2022/06/08 03:46:02;;;;;;;6.20;5.90;;;;;;;13.98;100.00;100480.81;6081124;23;20080;-69
2022/06/08 03:48:29;;;;;;;4.90;4.70;;;;;;;14.20;100.00;100517.94;6046007;23;20022;-67
2022/06/08 03:50:59;;;;;;;6.28;5.97;;;;;;;14.24;100.00;100518.56;6079570;23;20093;-67
2022/06/08 03:53:51;;;;;;;4.95;4.75;;;;;;;14.12;100.00;100493.88;6041425;23;20014;-68
2022/06/08 03:56:20;;;;;;;4.97;4.78;;;;;;;14.15;100.00;100493.66;6085812;23;20026;-68
2022/06/08 03:58:47;;;;;;;6.32;6.03;;;;;;;14.33;100.00;100507.34;6049626;23;20090;-68
2022/06/08 04:01:14;;;;;;;4.97;4.78;;;;;;;14.26;100.00;100506.13;6084639;23;20034;-70
2022/06/08 04:03:41;;;;;;;5.05;4.85;;;;;;;13.06;100.00;100322.75;6053443;23;20623;-69
2022/06/08 04:06:08;;;;;;;4.93;4.72;;;;;;;14.18;100.00;100504.00;6082122;23;20269;-70
2022/06/08 04:08:38;;;;;;;4.90;4.70;;;;;;;14.18;100.00;100509.28;6075798;23;20060;-69
2022/06/08 04:11:05;;;;;;;4.75;4.55;;;;;;;13.17;100.00;100330.75;6056719;23;20017;-69
2022/06/08 04:13:31;;;;;;;4.93;4.72;;;;;;;14.27;100.00;100511.28;6053405;23;20015;-69
2022/06/08 04:15:58;;;;;;;6.28;5.97;;;;;;;14.26;100.00;100506.94;6080135;23;20027;-68
2022/06/08 04:18:24;;;;;;;5.00;4.80;;;;;;;14.15;100.00;100494.53;6059797;23;20221;-68
2022/06/08 04:20:55;;;;;;;6.25;5.95;;;;;;;14.26;100.00;100514.03;6080000;23;20032;-69
2022/06/08 04:23:24;;;;;;;4.70;4.50;;;;;;;14.27;100.00;100513.94;6051133;23;20027;-71
2022/06/08 04:25:52;;;;;;;6.32;6.03;;;;;;;14.32;100.00;100511.78;6082689;23;20515;-67
2022/06/08 04:28:20;;;;;;;5.00;4.80;;;;;;;14.39;100.00;100521.91;6046002;23;20939;-66
2022/06/08 04:30:47;;;;;;;6.10;5.80;;;;;;;14.26;100.00;100485.00;6083024;23;20045;-67
2022/06/08 04:33:15;;;;;;;4.68;4.47;;;;;;;14.50;100.00;100519.38;6071446;23;20151;-68
2022/06/08 04:35:43;;;;;;;5.18;4.97;;;;;;;14.47;100.00;100494.03;6053375;23;20022;-67
2022/06/08 04:38:10;;;;;;;4.80;4.60;;;;;;;14.33;100.00;100473.03;6050271;23;20022;-68
2022/06/08 04:40:37;;;;;;;4.75;4.55;;;;;;;14.51;100.00;100499.91;6071584;23;20407;-68
2022/06/08 04:43:04;;;;;;;4.97;4.78;;;;;;;14.61;100.00;100498.31;6048459;23;21152;-67
2022/06/08 04:45:30;;;;;;;5.03;4.82;;;;;;;14.55;100.00;100469.69;6079615;23;20026;-68
2022/06/08 04:47:57;;;;;;;6.47;6.18;;;;;;;14.85;100.00;100490.41;6053714;23;20151;-67
2022/06/08 04:50:29;;;;;;;5.05;4.85;;;;;;;15.03;100.00;100488.22;6079559;23;20497;-68
2022/06/08 04:52:56;;;;;;;6.30;6.00;;;;;;;15.11;100.00;100466.50;6050644;23;20041;-68
2022/06/08 04:55:22;;;;;;;5.00;4.80;;;;;;;15.62;100.00;100487.31;6058403;23;20388;-68
2022/06/08 04:57:49;;;;;;;6.35;6.05;;;;;;;16.31;100.00;100462.56;6075102;23;20017;-72
2022/06/08 05:00:18;;;;;;;5.50;5.20;;;;;;;17.65;100.00;100475.41;6052293;23;20549;-72
2022/06/08 05:02:47;;;;;;;5.38;5.18;;;;;;;18.75;100.00;100486.16;6044852;23;20030;-73
2022/06/08 05:05:21;;;;;;;5.07;4.88;;;;;;;19.43;99.85;100448.91;6080529;23;20045;-71
2022/06/08 05:07:48;;;;;;;7.28;6.93;;;;;;;19.81;89.60;100464.94;6050908;23;20078;-68
2022/06/08 05:10:16;;;;;;;5.38;5.18;;;;;;;19.53;88.04;100467.50;6084466;23;20018;-67
2022/06/08 05:12:43;;;;;;;5.53;5.32;;;;;;;18.86;87.43;100294.63;6049517;23;20045;-67
2022/06/08 05:15:32;;;;;;;5.38;5.13;;;;;;;20.57;84.01;100459.34;6061284;23;20127;-68
2022/06/08 05:18:00;;;;;;;6.30;6.00;;;;;;;20.70;82.82;100461.66;6050016;23;20093;-73
2022/06/08 05:20:27;;;;;;;5.45;5.25;;;;;;;21.11;78.84;100412.19;6079174;23;20018;-69
2022/06/08 05:22:54;;;;;;;6.82;6.53;;;;;;;21.17;76.58;100457.91;6052647;23;20295;-68
2022/06/08 05:25:27;;;;;;;5.80;5.50;;;;;;;21.20;76.35;100452.28;6080362;23;20028;-68
2022/06/08 05:27:53;;;;;;;6.90;6.60;;;;;;;20.83;77.05;100447.97;6045973;23;20041;-68
2022/06/08 05:30:20;;;;;;;5.53;5.25;;;;;;;20.75;78.07;100446.06;6083627;23;20128;-68
2022/06/08 05:32:47;;;;;;;7.25;6.75;;;;;;;20.53;76.71;100434.00;6041359;23;20033;-70
2022/06/08 05:35:14;;;;;;;5.35;5.15;;;;;;;19.62;81.91;100431.19;6083757;23;20105;-73
2022/06/08 05:37:40;;;;;;;5.43;5.22;;;;;;;18.98;86.93;100438.03;6049629;23;20018;-75
2022/06/08 05:40:07;;;;;;;6.00;5.70;;;;;;;18.55;92.36;100434.78;6079214;23;20025;-68
2022/06/08 05:42:34;;;;;;;5.53;5.32;;;;;;;18.60;91.65;100431.69;6051651;23;20050;-74
2022/06/08 05:45:03;;;;;;;6.22;5.93;;;;;;;18.52;92.51;100414.66;6081553;23;20152;-71
2022/06/08 05:47:29;;;;;;;5.47;5.28;;;;;;;18.02;94.13;100380.16;6055279;23;20050;-72
2022/06/08 05:49:56;;;;;;;7.07;6.78;;;;;;;18.36;93.28;100392.22;6081042;23;20384;-71
2022/06/08 05:52:22;;;;;;;5.65;5.40;;;;;;;18.22;95.02;100414.72;6054882;23;20089;-72
2022/06/08 05:54:49;;;;;;;7.22;6.88;;;;;;;17.92;95.89;100366.88;6076611;23;20018;-68
2022/06/08 05:57:15;;;;;;;6.15;5.82;;;;;;;17.76;96.39;100379.78;6040030;23;20016;-68
2022/06/08 05:59:42;;;;;;;5.35;5.15;;;;;;;17.81;99.09;100408.56;6077833;23;20040;-73
2022/06/08 06:02:12;;;;;;;5.57;5.28;;;;;;;17.89;99.39;100408.75;6049077;23;20003;-71
2022/06/08 06:04:40;;;;;;;5.18;4.97;;;;;;;17.51;100.00;100347.41;6084381;23;20104;-72
2022/06/08 06:07:07;;;;;;;5.30;5.10;;;;;;;18.08;98.91;100402.66;6042643;23;20029;-67
2022/06/08 06:09:34;;;;;;;5.78;5.47;;;;;;;18.30;96.52;100402.44;6083848;23;20013;-68
2022/06/08 06:12:01;;;;;;;6.53;6.20;;;;;;;18.10;97.98;100400.72;6048004;23;20281;-73
2022/06/08 06:14:27;;;;;;;5.10;4.90;;;;;;;18.09;97.23;100396.38;6083822;23;20021;-71
2022/06/08 06:16:53;;;;;;;6.70;6.40;;;;;;;17.55;99.00;100364.72;6052103;23;20021;-73
2022/06/08 06:19:20;;;;;;;5.30;5.10;;;;;;;17.70;100.00;100398.88;6046362;23;20241;-73
2022/06/08 06:21:47;;;;;;;6.20;5.90;;;;;;;17.85;100.00;100384.28;6056523;23;20021;-67
2022/06/08 06:24:14;;;;;;;5.40;5.20;;;;;;;18.01;100.00;100391.75;6045941;23;20033;-68
2022/06/08 06:26:43;;;;;;;6.03;5.78;;;;;;;17.09;99.71;100236.13;6050795;23;20030;-66
2022/06/08 06:29:10;;;;;;;6.20;5.90;;;;;;;18.27;100.00;100396.56;6050938;23;20050;-68
2022/06/08 06:31:44;;;;;;;5.40;5.20;;;;;;;18.40;97.56;100390.97;6074943;23;20038;-68
2022/06/08 06:34:13;;;;;;;5.20;5.00;;;;;;;18.31;95.94;100368.75;6076670;23;20623;-68
2022/06/08 06:36:40;;;;;;;5.60;5.40;;;;;;;18.38;95.81;100355.75;6056725;23;20015;-67
2022/06/08 06:39:07;;;;;;;5.20;5.00;;;;;;;18.71;94.98;100360.63;6049616;23;20309;-68
2022/06/08 06:41:35;;;;;;;5.40;5.20;;;;;;;18.61;92.57;100361.63;6047975;23;20459;-67
2022/06/08 06:44:02;;;;;;;5.95;5.65;;;;;;;18.69;94.45;100378.53;6071189;23;20508;-68
2022/06/08 06:46:29;;;;;;;5.40;5.20;;;;;;;18.93;90.49;100388.78;6077569;23;20029;-71
2022/06/08 06:48:56;;;;;;;6.55;6.25;;;;;;;19.09;91.16;100390.03;6048110;23;20022;-74
2022/06/08 06:51:22;;;;;;;5.30;5.10;;;;;;;19.17;89.43;100391.97;6080494;23;20105;-74
2022/06/08 06:53:48;;;;;;;6.55;6.25;;;;;;;19.41;86.92;100381.69;6052410;23;20022;-73
2022/06/08 06:56:15;;;;;;;5.70;5.40;;;;;;;18.87;88.68;100368.06;6080560;23;20026;-72
2022/06/08 06:58:42;;;;;;;5.63;5.40;;;;;;;18.70;91.93;100363.44;6051238;23;20052;-76
2022/06/08 07:01:10;;;;;;;5.65;5.35;;;;;;;18.54;91.13;100359.53;6052607;23;20561;-74
2022/06/08 07:03:36;;;;;;;5.20;5.00;;;;;;;18.77;92.95;100358.41;6049785;23;20018;-73
2022/06/08 07:06:03;;;;;;;5.75;5.45;;;;;;;19.11;91.38;100383.56;6081954;23;20227;-73
2022/06/08 07:08:29;;;;;;;5.60;5.30;;;;;;;19.15;88.01;100385.97;6051167;23;20032;-72
2022/06/08 07:13:41;;;;;;;5.53;5.28;;;;;;;19.40;85.15;100385.31;6044095;23;20020;-75
2022/06/08 07:16:08;;;;;;;5.40;5.20;;;;;;;19.29;86.78;100380.19;6075647;23;20112;-72
2022/06/08 07:18:34;;;;;;;5.18;4.97;;;;;;;18.21;89.32;100198.75;6053129;23;20513;-68
2022/06/08 07:21:02;;;;;;;6.13;5.82;;;;;;;19.31;89.16;100371.06;6054173;23;20078;-68
2022/06/08 07:23:28;;;;;;;5.53;5.30;;;;;;;19.18;88.74;100365.19;6054985;23;20133;-68
2022/06/08 07:25:55;;;;;;;6.93;6.63;;;;;;;18.67;90.20;100313.22;6075608;23;20587;-68
2022/06/08 07:28:22;;;;;;;5.70;5.40;;;;;;;18.67;91.49;100330.00;6046890;23;20018;-68
2022/06/08 07:30:48;;;;;;;6.80;6.50;;;;;;;18.63;91.21;100330.44;6077520;23;20104;-69
2022/06/08 07:33:15;;;;;;;6.75;5.30;;;;;;;18.96;89.29;100361.03;6054753;23;20025;-68
2022/06/08 07:35:41;;;;;;;5.47;5.25;;;;;;;18.96;89.05;100342.44;6050109;23;20011;-68
2022/06/08 07:38:08;;;;;;;5.45;5.25;;;;;;;19.14;87.86;100355.84;6041740;23;20022;-69
2022/06/08 07:40:34;;;;;;;5.30;5.10;;;;;;;19.16;87.01;100334.41;6073279;23;20045;-69
2022/06/08 07:43:01;;;;;;;6.32;6.03;;;;;;;18.97;88.37;100325.50;6048275;23;20012;-69
2022/06/08 07:45:27;;;;;;;5.30;5.10;;;;;;;18.86;87.38;100325.66;6077100;23;20121;-68
2022/06/08 07:50:40;;;;;;;5.07;4.88;;;;;;;19.12;88.35;100348.03;6050377;23;20010;-72
2022/06/08 07:53:07;;;;;;;5.40;5.20;;;;;;;19.34;86.81;100343.31;6091013;23;20112;-69
2022/06/08 07:55:34;;;;;;;5.60;5.30;;;;;;;19.38;85.48;100343.88;6092951;23;20113;-70
2022/06/08 07:58:02;;;;;;;5.40;5.20;;;;;;;19.51;85.56;100344.38;6048784;23;20010;-69
2022/06/08 08:00:29;;;;;;;5.40;5.20;;;;;;;19.48;84.33;100323.38;6050932;23;20396;-73
2022/06/08 08:02:56;;;;;;;6.38;6.07;;;;;;;19.70;84.58;100344.31;6077633;23;20017;-69
2022/06/08 08:05:22;;;;;;;5.50;5.30;;;;;;;19.68;83.31;100318.78;6072153;23;20035;-75
2022/06/08 08:07:50;;;;;;;6.35;6.05;;;;;;;20.02;81.72;100319.03;6052011;23;20030;-72
2022/06/08 08:10:20;;;;;;;5.65;5.35;;;;;;;20.47;80.96;100330.63;6079075;23;20006;-75
2022/06/08 08:12:48;;;;;;;9.52;8.82;;;;;;;20.66;80.26;100319.81;6058666;23;20022;-70
2022/06/08 08:15:16;;;;;;;5.60;5.30;;;;;;;20.76;77.98;100332.22;6045013;23;20094;-73
2022/06/08 08:17:43;;;;;;;5.85;5.60;;;;;;;20.81;76.90;100305.94;6065295;23;20062;-73
2022/06/08 08:20:13;;;;;;;6.00;5.70;;;;;;;20.63;77.53;100329.97;6049107;23;20011;-72
2022/06/08 08:22:39;;;;;;;5.55;5.35;;;;;;;20.75;78.54;100323.41;6076908;23;20030;-68
2022/06/08 08:25:06;;;;;;;5.30;5.10;;;;;;;20.61;75.94;100308.78;6053100;23;20034;-73
2022/06/08 08:27:32;;;;;;;5.60;5.40;;;;;;;20.50;77.21;100322.31;6061663;23;20038;-74
2022/06/08 08:29:59;;;;;;;6.63;6.32;;;;;;;20.67;78.44;100323.34;6048732;23;20465;-71
2022/06/08 08:32:25;;;;;;;5.80;5.50;;;;;;;20.57;77.18;100312.72;6034486;23;20455;-67
2022/06/08 08:34:52;;;;;;;6.00;5.70;;;;;;;20.48;78.59;100314.47;6051483;23;20042;-68
2022/06/08 08:37:18;;;;;;;5.55;5.25;;;;;;;20.67;78.66;100321.50;6081114;23;20545;-68
2022/06/08 08:39:45;;;;;;;6.10;5.82;;;;;;;20.27;79.36;100176.22;6055207;23;20049;-70
2022/06/08 08:42:23;;;;;;;5.50;5.30;;;;;;;21.61;75.59;100287.84;6081434;23;20306;-67
2022/06/08 08:45:05;;;;;;;6.85;6.55;;;;;;;21.99;70.92;100312.34;6050500;23;20018;-67
2022/06/08 08:47:34;;;;;;;5.70;5.40;;;;;;;22.14;71.68;100304.50;6080425;23;20459;-69
2022/06/08 08:50:24;;;;;;;6.13;5.82;;;;;;;22.26;69.65;100281.81;6045559;23;20294;-68
2022/06/08 08:52:54;;;;;;;7.22;6.90;;;;;;;21.94;71.29;100297.78;6075913;23;20025;-74
2022/06/08 08:55:26;;;;;;;5.80;5.53;;;;;;;21.90;70.65;100295.44;6055762;23;20022;-73
2022/06/08 08:57:58;;;;;;;7.07;6.78;;;;;;;22.14;69.25;100299.16;6078518;23;20005;-72
2022/06/08 09:00:37;;;;;;;5.50;5.30;;;;;;;22.45;69.38;100293.19;6066935;23;20295;-70
2022/06/08 09:03:25;;;;;;;5.75;5.45;;;;;;;22.78;66.11;100290.50;6051305;23;20055;-68
2022/06/08 09:05:55;;;;;;;7.60;7.20;;;;;;;22.97;64.49;100276.72;6080821;23;20044;-67
2022/06/08 09:08:23;;;;;;;5.85;5.55;;;;;;;23.41;63.65;100288.84;6054825;23;20287;-72
2022/06/08 09:10:54;;;;;;;6.72;6.43;;;;;;;23.79;61.14;100286.34;6077112;23;20093;-72
2022/06/08 09:13:34;;;;;;;7.25;6.95;;;;;;;23.73;60.01;100282.47;6048728;23;20392;-73
2022/06/08 09:16:00;;;;;;;6.32;6.03;;;;;;;24.10;57.35;100286.31;6079716;23;20018;-74
2022/06/08 09:18:40;;;;;;;6.00;5.70;;;;;;;24.19;57.47;100287.06;6026456;23;20077;-74
2022/06/08 09:21:26;;;;;;;6.30;5.90;;;;;;;24.59;56.10;100280.56;6079582;23;20026;-74
2022/06/08 09:23:56;;;;;;;7.07;6.78;;;;;;;24.50;55.73;100276.31;6054331;23;20531;-73
2022/06/08 09:26:22;;;;;;;5.70;5.50;;;;;;;24.30;53.80;100275.94;6046006;23;20022;-74
2022/06/08 09:29:10;;;;;;;7.18;6.88;;;;;;;24.16;54.21;100269.50;6077753;23;20021;-73
2022/06/08 09:31:39;;;;;;;5.85;5.57;;;;;;;24.36;53.65;100264.50;6051317;23;20030;-75
2022/06/08 09:34:19;;;;;;;6.00;5.70;;;;;;;24.42;53.66;100262.94;6077222;23;20022;-71
2022/06/08 09:37:04;;;;;;;7.03;6.72;;;;;;;24.55;53.46;100260.47;6057298;23;20580;-66
2022/06/08 09:39:33;;;;;;;6.10;5.80;;;;;;;24.92;52.74;100247.19;6052293;23;20671;-68
2022/06/08 09:42:11;;;;;;;6.50;6.20;;;;;;;25.18;52.29;100254.81;6068753;23;20465;-68
2022/06/08 09:45:03;;;;;;;5.60;5.40;;;;;;;25.45;51.79;100239.88;6051342;23;20485;-68
2022/06/08 09:54:01;;;;;;;6.00;5.70;;;;;;;25.50;48.55;100237.47;6073989;23;20046;-69
2022/06/08 09:56:53;;;;;;;6.10;5.80;;;;;;;25.22;50.77;100245.38;6055988;23;20046;-69
2022/06/08 09:59:39;;;;;;;5.93;5.63;;;;;;;24.95;52.32;100236.09;6084584;23;20079;-74
2022/06/08 10:02:28;;;;;;;5.90;5.60;;;;;;;24.67;53.38;100232.19;6037919;23;20082;-73
2022/06/08 10:04:58;;;;;;;6.80;6.50;;;;;;;24.08;54.89;100234.72;6075699;23;20013;-71
2022/06/08 10:07:45;;;;;;;5.60;5.40;;;;;;;23.83;56.92;100231.38;6083917;23;20021;-69
2022/06/08 10:10:21;;;;;;;6.35;6.05;;;;;;;23.76;57.13;100249.16;6043106;23;20094;-70
2022/06/08 10:12:57;;;;;;;6.80;6.50;;;;;;;23.42;58.62;100245.81;6050915;23;20030;-67
2022/06/08 10:15:42;;;;;;;5.63;5.43;;;;;;;23.03;61.50;100254.69;6036828;23;20236;-69
2022/06/08 10:18:14;;;;;;;6.03;5.72;;;;;;;22.54;64.55;100229.84;6071371;23;20060;-69
2022/06/08 10:20:56;;;;;;;5.90;5.60;;;;;;;22.10;68.55;100263.06;6040132;23;20603;-68
2022/06/08 10:23:36;;;;;;;5.85;5.55;;;;;;;21.45;73.75;100261.94;6082764;23;20017;-69
2022/06/08 10:26:18;;;;;;;8.18;5.65;;;;;;;20.43;72.54;100278.63;6051349;23;20019;-68
2022/06/08 10:28:54;;;;;;;6.40;6.10;;;;;;;19.81;72.17;100250.09;6074001;23;20415;-68
2022/06/08 10:31:35;;;;;;;5.50;5.30;;;;;;;19.95;78.80;100271.88;6054275;23;20279;-69
2022/06/08 10:34:16;;;;;;;5.55;5.35;;;;;;;19.90;81.46;100278.44;6079681;23;20009;-72
2022/06/08 10:36:48;;;;;;;5.95;5.68;;;;;;;19.15;87.60;100224.53;6055444;23;20281;-75
2022/06/08 10:39:15;;;;;;;5.80;5.50;;;;;;;19.03;92.27;100289.53;6046073;23;20102;-73
2022/06/08 10:44:47;;;;;;;5.57;5.38;;;;;;;18.24;91.39;100272.84;6043338;23;20081;-69
2022/06/08 10:47:16;;;;;;;5.80;5.50;;;;;;;18.24;96.11;100277.28;6075455;23;20025;-69
2022/06/08 10:49:47;;;;;;;6.00;5.70;;;;;;;18.31;100.00;100271.28;6025762;23;20455;-72
2022/06/08 10:52:26;;;;;;;5.80;5.50;;;;;;;17.99;100.00;100245.00;6078224;23;20022;-72
2022/06/08 10:55:17;;;;;;;6.97;6.68;;;;;;;18.29;100.00;100265.28;6044347;23;20018;-71
2022/06/08 10:57:49;;;;;;;5.82;5.57;;;;;;;18.31;99.16;100218.16;6075524;23;20638;-73
2022/06/08 11:00:22;;;;;;;5.35;5.10;;;;;;;18.74;97.29;100269.13;6050479;23;20183;-74
2022/06/08 11:02:58;;;;;;;6.68;6.38;;;;;;;18.81;99.30;100288.06;6078593;23;20033;-74
2022/06/08 11:05:28;;;;;;;5.70;5.43;;;;;;;18.52;100.00;100299.50;6059157;23;20022;-72
2022/06/08 11:08:01;;;;;;;6.95;6.65;;;;;;;17.87;100.00;100299.22;6052439;23;20104;-71
2022/06/08 11:10:57;;;;;;;5.57;5.30;;;;;;;17.83;100.00;100305.75;6054620;23;20026;-74
2022/06/08 11:13:36;;;;;;;5.72;5.45;;;;;;;17.73;100.00;100305.72;6028818;23;20311;-73
2022/06/08 11:16:23;;;;;;;5.40;5.20;;;;;;;17.64;100.00;100301.22;6073078;23;20214;-73
2022/06/08 11:18:57;;;;;;;5.88;5.63;;;;;;;17.77;100.00;100295.69;6053663;23;20273;-72
2022/06/08 11:21:38;;;;;;;5.38;5.18;;;;;;;18.00;100.00;100299.81;6051909;23;20021;-68
2022/06/08 11:24:17;;;;;;;6.32;6.03;;;;;;;17.90;100.00;100265.28;6080616;23;20010;-69
2022/06/08 11:27:00;;;;;;;6.07;5.78;;;;;;;18.19;100.00;100291.00;6015033;23;20032;-68
2022/06/08 11:29:30;;;;;;;5.50;5.30;;;;;;;18.36;100.00;100286.78;6078761;23;20057;-69
2022/06/08 11:31:57;;;;;;;6.90;6.60;;;;;;;18.45;100.00;100285.13;6040815;23;20006;-67
2022/06/08 11:34:45;;;;;;;5.47;5.18;;;;;;;18.56;100.00;100279.66;6067563;23;20514;-68
2022/06/08 11:37:33;;;;;;;5.20;5.00;;;;;;;18.54;100.00;100273.63;6053785;23;20026;-68
2022/06/08 11:40:04;;;;;;;6.95;6.65;;;;;;;18.56;100.00;100262.88;6047093;23;20478;-69
2022/06/08 11:42:32;;;;;;;5.25;5.05;;;;;;;18.66;100.00;100274.31;6041735;23;20493;-68
2022/06/08 11:45:06;;;;;;;6.82;6.53;;;;;;;18.57;100.00;100264.56;6051252;23;20097;-74
2022/06/08 11:47:58;;;;;;;5.40;5.20;;;;;;;18.66;100.00;100263.69;6049264;23;20027;-74
2022/06/08 11:50:31;;;;;;;5.50;5.20;;;;;;;18.68;100.00;100253.75;6046843;23;20010;-73
2022/06/08 11:53:04;;;;;;;6.40;6.10;;;;;;;18.79;100.00;100263.41;6050533;23;20307;-68
2022/06/08 11:55:36;;;;;;;5.40;5.10;;;;;;;18.63;100.00;100226.78;6057740;23;20094;-68
2022/06/08 11:58:05;;;;;;;5.38;5.18;;;;;;;18.86;100.00;100260.06;6074178;23;20025;-68
2022/06/08 12:00:48;;;;;;;5.32;5.13;;;;;;;18.62;100.00;100262.31;6055928;23;20206;-68
2022/06/08 12:03:41;;;;;;;;;;;;;;;18.76;100.00;100275.13;6074030;23;20014;-68